createdAt,value
2018-11-29T00:00:08.471Z,75.02
2018-11-29T00:01:08.411Z,74.92
2018-11-29T00:02:08.351Z,75.02
2018-11-29T00:03:08.295Z,75.30
2018-11-29T00:04:08.231Z,74.63
2018-11-29T00:05:08.170Z,75.02
2018-11-29T00:06:08.110Z,75.11
2018-11-29T00:07:08.050Z,75.02
2018-11-29T00:08:07.990Z,74.82
2018-11-29T00:09:07.929Z,75.11
2018-11-29T00:10:07.869Z,74.73
2018-11-29T00:11:07.812Z,74.92
2018-11-29T00:12:07.749Z,74.92
2018-11-29T00:13:07.690Z,74.63
2018-11-29T00:14:07.629Z,74.63
2018-11-29T00:15:07.568Z,74.54
2018-11-29T00:16:07.508Z,74.54
2018-11-29T00:17:07.447Z,74.63
2018-11-29T00:18:07.387Z,74.82
2018-11-29T00:19:07.327Z,74.82
2018-11-29T00:20:07.267Z,74.88
2018-11-29T00:21:07.205Z,74.63
2018-11-29T00:22:07.146Z,74.73
2018-11-29T00:23:07.085Z,74.63
2018-11-29T00:24:07.026Z,74.82
2018-11-29T00:25:06.965Z,74.82
2018-11-29T00:26:06.905Z,74.82
2018-11-29T00:27:06.848Z,74.79
2018-11-29T00:28:06.787Z,74.82
2018-11-29T00:29:06.723Z,74.92
2018-11-29T00:30:06.663Z,74.92
2018-11-29T00:31:06.603Z,74.69
2018-11-29T00:32:06.543Z,74.98
2018-11-29T00:33:06.484Z,74.82
2018-11-29T00:34:06.423Z,75.02
2018-11-29T00:35:06.365Z,74.63
2018-11-29T00:36:06.302Z,74.92
2018-11-29T00:37:07.368Z,75.07
2018-11-29T00:38:06.182Z,74.82
2018-11-29T00:39:06.122Z,74.88
2018-11-29T00:40:06.063Z,74.92
2018-11-29T00:41:06.002Z,74.88
2018-11-29T00:42:05.941Z,74.98
2018-11-29T00:43:05.883Z,75.78
2018-11-29T00:44:05.823Z,75.11
2018-11-29T00:45:05.761Z,75.11
2018-11-29T00:46:05.700Z,74.98
2018-11-29T00:47:05.640Z,75.02
2018-11-29T00:48:05.581Z,74.98
2018-11-29T00:49:05.523Z,75.02
2018-11-29T00:50:05.459Z,75.40
2018-11-29T00:51:05.399Z,75.49
2018-11-29T00:52:05.339Z,75.26
2018-11-29T00:53:05.277Z,75.40
2018-11-29T00:54:05.225Z,75.59
2018-11-29T00:55:05.159Z,75.30
2018-11-29T00:56:05.098Z,75.30
2018-11-29T00:57:05.037Z,75.30
2018-11-29T00:58:04.977Z,75.30
2018-11-29T00:59:04.918Z,75.30
2018-11-29T01:00:04.859Z,75.49
2018-11-29T01:01:04.797Z,75.26
2018-11-29T01:02:04.737Z,75.26
2018-11-29T01:03:04.675Z,75.30
2018-11-29T01:04:04.617Z,75.30
2018-11-29T01:05:04.556Z,75.49
2018-11-29T01:06:04.496Z,75.40
2018-11-29T01:07:04.436Z,75.30
2018-11-29T01:08:04.379Z,75.40
2018-11-29T01:09:04.314Z,75.30
2018-11-29T01:10:04.255Z,75.49
2018-11-29T01:11:04.196Z,75.49
2018-11-29T01:12:04.136Z,75.30
2018-11-29T01:13:04.074Z,75.49
2018-11-29T01:14:04.013Z,75.59
2018-11-29T01:15:03.953Z,75.21
2018-11-29T01:16:03.893Z,75.21
2018-11-29T01:17:03.833Z,75.49
2018-11-29T01:18:03.774Z,75.21
2018-11-29T01:19:03.714Z,75.49
2018-11-29T01:20:03.652Z,75.40
2018-11-29T01:21:03.598Z,75.40
2018-11-29T01:22:03.532Z,75.59
2018-11-29T01:23:03.475Z,75.40
2018-11-29T01:24:03.415Z,75.49
2018-11-29T01:25:03.351Z,75.59
2018-11-29T01:26:03.292Z,75.59
2018-11-29T01:27:03.232Z,75.78
2018-11-29T01:28:03.171Z,75.49
2018-11-29T01:29:03.111Z,75.68
2018-11-29T01:30:03.051Z,75.59
2018-11-29T01:31:02.989Z,75.55
2018-11-29T01:32:02.929Z,75.68
2018-11-29T01:33:02.869Z,75.59
2018-11-29T01:34:02.809Z,75.68
2018-11-29T01:35:02.748Z,75.59
2018-11-29T01:36:02.689Z,75.68
2018-11-29T01:37:02.628Z,75.40
2018-11-29T01:38:02.568Z,75.59
2018-11-29T01:39:02.511Z,75.59
2018-11-29T01:40:02.448Z,75.68
2018-11-29T01:41:02.391Z,75.59
2018-11-29T01:42:02.327Z,75.59
2018-11-29T01:43:02.266Z,75.30
2018-11-29T01:44:02.207Z,75.68
2018-11-29T01:45:02.146Z,75.30
2018-11-29T01:46:02.087Z,75.68
2018-11-29T01:47:02.026Z,75.59
2018-11-29T01:48:01.967Z,75.55
2018-11-29T01:49:01.911Z,75.78
2018-11-29T01:50:01.845Z,75.49
2018-11-29T01:51:01.785Z,75.59
2018-11-29T01:52:01.725Z,75.87
2018-11-29T01:53:01.664Z,75.96
2018-11-29T01:54:01.606Z,75.68
2018-11-29T01:55:01.545Z,75.96
2018-11-29T01:56:01.490Z,76.16
2018-11-29T01:57:01.425Z,76.16
2018-11-29T01:58:01.365Z,76.16
2018-11-29T01:59:01.303Z,75.96
2018-11-29T02:00:01.244Z,75.87
2018-11-29T02:01:01.185Z,76.16
2018-11-29T02:02:01.125Z,75.96
2018-11-29T02:03:01.063Z,75.87
2018-11-29T02:04:01.003Z,75.96
2018-11-29T02:05:00.942Z,75.87
2018-11-29T02:06:00.882Z,75.87
2018-11-29T02:07:00.824Z,75.87
2018-11-29T02:08:00.762Z,75.78
2018-11-29T02:09:00.704Z,75.78
2018-11-29T02:10:00.644Z,75.87
2018-11-29T02:11:00.590Z,75.78
2018-11-29T02:12:00.525Z,75.87
2018-11-29T02:13:00.460Z,76.16
2018-11-29T02:14:00.403Z,75.87
2018-11-29T02:15:00.340Z,75.87
2018-11-29T02:16:00.279Z,75.87
2018-11-29T02:17:00.224Z,75.84
2018-11-29T02:18:00.160Z,75.78
2018-11-29T02:19:00.101Z,75.87
2018-11-29T02:20:00.039Z,75.96
2018-11-29T02:20:59.979Z,75.96
2018-11-29T02:21:59.919Z,76.06
2018-11-29T02:22:59.949Z,76.06
2018-11-29T02:23:59.798Z,76.03
2018-11-29T02:24:59.738Z,75.87
2018-11-29T02:25:59.687Z,75.87
2018-11-29T02:26:59.619Z,75.87
2018-11-29T02:27:59.559Z,76.06
2018-11-29T02:28:59.500Z,76.06
2018-11-29T02:29:59.437Z,75.93
2018-11-29T02:30:59.377Z,75.78
2018-11-29T02:31:59.319Z,75.59
2018-11-29T02:32:59.258Z,75.96
2018-11-29T02:33:59.195Z,75.74
2018-11-29T02:34:59.138Z,75.64
2018-11-29T02:35:59.079Z,76.06
2018-11-29T02:36:59.017Z,75.87
2018-11-29T02:37:58.955Z,75.78
2018-11-29T02:38:58.933Z,75.68
2018-11-29T02:39:58.835Z,75.87
2018-11-29T02:40:58.773Z,75.68
2018-11-29T02:41:58.713Z,75.78
2018-11-29T02:42:58.655Z,75.78
2018-11-29T02:43:58.595Z,75.87
2018-11-29T02:44:58.533Z,75.87
2018-11-29T02:45:58.473Z,75.78
2018-11-29T02:46:58.413Z,75.68
2018-11-29T02:47:58.359Z,75.74
2018-11-29T02:48:58.292Z,75.78
2018-11-29T02:49:58.232Z,75.78
2018-11-29T02:50:58.177Z,75.78
2018-11-29T02:51:58.112Z,75.78
2018-11-29T02:52:58.051Z,75.68
2018-11-29T02:53:57.993Z,75.68
2018-11-29T02:54:57.930Z,75.78
2018-11-29T02:55:57.874Z,75.78
2018-11-29T02:56:57.812Z,75.59
2018-11-29T02:57:57.751Z,75.55
2018-11-29T02:58:57.690Z,75.68
2018-11-29T02:59:57.631Z,75.59
2018-11-29T03:00:57.569Z,75.68
2018-11-29T03:01:57.512Z,75.55
2018-11-29T03:02:57.449Z,75.59
2018-11-29T03:03:57.389Z,75.68
2018-11-29T03:04:57.327Z,75.59
2018-11-29T03:05:57.267Z,75.59
2018-11-29T03:06:57.209Z,75.49
2018-11-29T03:07:57.148Z,75.49
2018-11-29T03:08:57.086Z,75.49
2018-11-29T03:09:57.031Z,75.55
2018-11-29T03:10:56.967Z,75.59
2018-11-29T03:11:56.910Z,75.59
2018-11-29T03:12:56.845Z,75.55
2018-11-29T03:13:56.788Z,75.59
2018-11-29T03:14:56.725Z,75.74
2018-11-29T03:15:56.666Z,75.49
2018-11-29T03:16:56.605Z,75.55
2018-11-29T03:17:56.545Z,75.59
2018-11-29T03:18:56.487Z,75.59
2018-11-29T03:19:56.426Z,75.68
2018-11-29T03:20:56.368Z,75.59
2018-11-29T03:21:56.316Z,75.78
2018-11-29T03:22:56.245Z,75.74
2018-11-29T03:23:56.185Z,75.59
2018-11-29T03:24:56.124Z,75.74
2018-11-29T03:25:56.092Z,75.59
2018-11-29T03:26:56.008Z,75.74
2018-11-29T03:27:55.944Z,75.55
2018-11-29T03:28:55.883Z,75.96
2018-11-29T03:29:55.824Z,75.59
2018-11-29T03:30:55.767Z,75.84
2018-11-29T03:31:55.704Z,75.64
2018-11-29T03:32:55.643Z,75.64
2018-11-29T03:33:55.584Z,76.12
2018-11-29T03:34:55.521Z,75.74
2018-11-29T03:35:55.462Z,76.12
2018-11-29T03:36:55.403Z,75.78
2018-11-29T03:37:55.343Z,75.78
2018-11-29T03:38:55.280Z,76.31
2018-11-29T03:39:55.220Z,76.12
2018-11-29T03:40:55.164Z,76.21
2018-11-29T03:41:55.103Z,75.78
2018-11-29T03:42:55.048Z,75.84
2018-11-29T03:43:54.979Z,76.03
2018-11-29T03:44:54.920Z,76.31
2018-11-29T03:45:54.858Z,76.06
2018-11-29T03:46:54.799Z,76.06
2018-11-29T03:47:54.739Z,76.12
2018-11-29T03:48:54.680Z,75.93
2018-11-29T03:49:54.621Z,76.21
2018-11-29T03:50:54.558Z,76.06
2018-11-29T03:51:54.500Z,76.50
2018-11-29T03:52:54.437Z,76.35
2018-11-29T03:53:54.377Z,76.35
2018-11-29T03:54:54.316Z,76.25
2018-11-29T03:55:54.256Z,76.50
2018-11-29T03:56:54.195Z,76.21
2018-11-29T03:57:54.142Z,76.31
2018-11-29T03:58:54.075Z,76.59
2018-11-29T03:59:54.021Z,76.31
2018-11-29T04:00:53.954Z,76.31
2018-11-29T04:01:53.895Z,76.21
2018-11-29T04:02:53.834Z,76.50
2018-11-29T04:03:53.776Z,76.50
2018-11-29T04:04:53.714Z,76.40
2018-11-29T04:05:53.655Z,76.59
2018-11-29T04:06:53.594Z,76.40
2018-11-29T04:07:53.533Z,76.40
2018-11-29T04:08:53.471Z,76.31
2018-11-29T04:09:53.413Z,76.40
2018-11-29T04:10:53.352Z,76.40
2018-11-29T04:11:53.292Z,76.40
2018-11-29T04:12:53.241Z,76.31
2018-11-29T04:13:53.172Z,76.40
2018-11-29T04:14:53.115Z,76.40
2018-11-29T04:15:53.051Z,76.44
2018-11-29T04:16:52.989Z,76.12
2018-11-29T04:17:52.931Z,76.40
2018-11-29T04:18:52.870Z,76.40
2018-11-29T04:19:52.810Z,76.44
2018-11-29T04:20:52.750Z,76.40
2018-11-29T04:21:52.689Z,76.40
2018-11-29T04:22:52.630Z,76.50
2018-11-29T04:23:52.570Z,76.40
2018-11-29T04:24:52.510Z,76.40
2018-11-29T04:25:52.450Z,76.31
2018-11-29T04:26:52.389Z,76.21
2018-11-29T04:27:52.328Z,76.50
2018-11-29T04:28:52.268Z,76.25
2018-11-29T04:29:52.210Z,76.31
2018-11-29T04:30:52.150Z,76.31
2018-11-29T04:31:52.087Z,76.21
2018-11-29T04:32:53.288Z,76.31
2018-11-29T04:33:51.968Z,76.12
2018-11-29T04:34:51.906Z,76.31
2018-11-29T04:35:51.846Z,76.21
2018-11-29T04:36:51.784Z,76.12
2018-11-29T04:37:51.728Z,76.16
2018-11-29T04:38:51.664Z,76.31
2018-11-29T04:39:51.609Z,76.21
2018-11-29T04:40:51.544Z,76.31
2018-11-29T04:41:51.484Z,76.40
2018-11-29T04:42:51.424Z,76.12
2018-11-29T04:43:51.364Z,76.12
2018-11-29T04:44:51.302Z,76.31
2018-11-29T04:45:51.242Z,76.12
2018-11-29T04:46:51.182Z,76.12
2018-11-29T04:47:51.122Z,76.12
2018-11-29T04:48:51.065Z,76.21
2018-11-29T04:49:51.002Z,76.12
2018-11-29T04:50:50.944Z,76.12
2018-11-29T04:51:50.881Z,76.12
2018-11-29T04:52:50.822Z,76.12
2018-11-29T04:53:50.760Z,76.12
2018-11-29T04:54:50.702Z,76.12
2018-11-29T04:55:50.645Z,76.12
2018-11-29T04:56:50.580Z,76.31
2018-11-29T04:57:50.521Z,76.03
2018-11-29T04:58:50.461Z,76.03
2018-11-29T04:59:50.405Z,76.12
2018-11-29T05:00:50.342Z,76.21
2018-11-29T05:01:50.277Z,76.31
2018-11-29T05:02:50.221Z,76.21
2018-11-29T05:03:50.159Z,76.40
2018-11-29T05:04:50.098Z,76.50
2018-11-29T05:05:50.040Z,76.21
2018-11-29T05:06:49.978Z,76.50
2018-11-29T05:07:49.917Z,76.21
2018-11-29T05:08:49.859Z,76.31
2018-11-29T05:09:49.797Z,76.21
2018-11-29T05:10:49.736Z,76.31
2018-11-29T05:11:49.675Z,76.31
2018-11-29T05:12:49.615Z,76.31
2018-11-29T05:13:49.554Z,76.31
2018-11-29T05:14:49.494Z,76.50
2018-11-29T05:15:49.437Z,76.31
2018-11-29T05:16:49.377Z,76.31
2018-11-29T05:17:49.313Z,76.31
2018-11-29T05:18:49.253Z,76.31
2018-11-29T05:19:49.194Z,76.31
2018-11-29T05:20:49.132Z,76.40
2018-11-29T05:21:49.072Z,76.50
2018-11-29T05:22:49.013Z,76.50
2018-11-29T05:23:48.953Z,76.50
2018-11-29T05:24:48.892Z,76.50
2018-11-29T05:25:48.831Z,76.50
2018-11-29T05:26:48.771Z,76.50
2018-11-29T05:27:48.711Z,76.59
2018-11-29T05:28:48.650Z,76.59
2018-11-29T05:29:48.591Z,76.50
2018-11-29T05:30:48.529Z,76.59
2018-11-29T05:31:48.471Z,76.50
2018-11-29T05:32:48.409Z,76.40
2018-11-29T05:33:48.351Z,76.50
2018-11-29T05:34:48.290Z,76.31
2018-11-29T05:35:48.230Z,76.31
2018-11-29T05:36:48.167Z,76.50
2018-11-29T05:37:48.111Z,76.31
2018-11-29T05:38:48.049Z,76.31
2018-11-29T05:39:47.986Z,76.40
2018-11-29T05:40:47.931Z,76.40
2018-11-29T05:41:47.866Z,76.50
2018-11-29T05:42:47.808Z,76.50
2018-11-29T05:43:47.746Z,76.31
2018-11-29T05:44:47.686Z,76.31
2018-11-29T05:45:47.625Z,76.50
2018-11-29T05:46:47.564Z,76.40
2018-11-29T05:47:47.505Z,76.31
2018-11-29T05:48:47.446Z,76.40
2018-11-29T05:49:47.385Z,76.31
2018-11-29T05:50:47.322Z,76.50
2018-11-29T05:51:47.263Z,76.50
2018-11-29T05:52:47.207Z,76.21
2018-11-29T05:53:47.142Z,76.12
2018-11-29T05:54:47.084Z,76.21
2018-11-29T05:55:47.023Z,76.40
2018-11-29T05:56:46.961Z,76.40
2018-11-29T05:57:46.901Z,76.12
2018-11-29T05:58:46.840Z,76.12
2018-11-29T05:59:46.783Z,76.40
2018-11-29T06:00:46.725Z,76.21
2018-11-29T06:01:46.659Z,76.31
2018-11-29T06:02:46.601Z,76.31
2018-11-29T06:03:46.540Z,76.50
2018-11-29T06:04:46.479Z,76.21
2018-11-29T06:05:46.418Z,76.31
2018-11-29T06:06:46.358Z,76.31
2018-11-29T06:07:46.300Z,76.21
2018-11-29T06:08:46.238Z,76.40
2018-11-29T06:09:46.177Z,76.50
2018-11-29T06:10:46.117Z,76.40
2018-11-29T06:11:46.060Z,76.40
2018-11-29T06:12:45.996Z,76.12
2018-11-29T06:13:45.936Z,76.31
2018-11-29T06:14:45.876Z,76.31
2018-11-29T06:15:45.817Z,76.21
2018-11-29T06:16:45.754Z,76.40
2018-11-29T06:17:46.747Z,76.50
2018-11-29T06:18:45.636Z,76.31
2018-11-29T06:19:45.577Z,76.21
2018-11-29T06:20:45.514Z,76.40
2018-11-29T06:21:45.456Z,76.40
2018-11-29T06:22:45.395Z,76.50
2018-11-29T06:23:45.334Z,76.21
2018-11-29T06:24:45.273Z,76.21
2018-11-29T06:25:45.214Z,76.21
2018-11-29T06:26:45.152Z,76.12
2018-11-29T06:27:45.094Z,76.21
2018-11-29T06:28:45.031Z,76.21
2018-11-29T06:29:44.973Z,76.03
2018-11-29T06:30:44.911Z,76.21
2018-11-29T06:31:44.851Z,76.03
2018-11-29T06:32:44.791Z,76.03
2018-11-29T06:33:44.734Z,75.84
2018-11-29T06:34:44.670Z,76.03
2018-11-29T06:35:44.613Z,76.03
2018-11-29T06:36:44.549Z,76.03
2018-11-29T06:37:44.489Z,75.93
2018-11-29T06:38:44.429Z,75.93
2018-11-29T06:39:44.368Z,76.12
2018-11-29T06:40:44.307Z,75.74
2018-11-29T06:41:44.249Z,76.03
2018-11-29T06:42:44.187Z,75.84
2018-11-29T06:43:44.128Z,75.64
2018-11-29T06:44:44.067Z,75.64
2018-11-29T06:45:44.006Z,75.74
2018-11-29T06:46:43.945Z,75.74
2018-11-29T06:47:43.885Z,75.55
2018-11-29T06:48:43.826Z,75.74
2018-11-29T06:49:43.765Z,75.55
2018-11-29T06:50:43.703Z,75.55
2018-11-29T06:51:43.646Z,75.84
2018-11-29T06:52:43.583Z,75.84
2018-11-29T06:53:43.527Z,75.64
2018-11-29T06:54:43.462Z,75.55
2018-11-29T06:55:43.403Z,76.03
2018-11-29T06:56:43.342Z,75.74
2018-11-29T06:57:43.282Z,75.55
2018-11-29T06:58:43.220Z,75.55
2018-11-29T06:59:43.166Z,75.36
2018-11-29T07:00:43.100Z,75.55
2018-11-29T07:01:43.081Z,75.45
2018-11-29T07:02:42.981Z,75.55
2018-11-29T07:03:43.381Z,75.74
2018-11-29T07:04:42.859Z,75.45
2018-11-29T07:05:42.799Z,75.64
2018-11-29T07:06:42.738Z,75.84
2018-11-29T07:07:42.678Z,75.74
2018-11-29T07:08:42.620Z,75.64
2018-11-29T07:09:42.557Z,75.74
2018-11-29T07:10:42.517Z,75.55
2018-11-29T07:11:42.436Z,75.74
2018-11-29T07:12:42.375Z,75.64
2018-11-29T07:13:42.315Z,75.74
2018-11-29T07:14:42.258Z,75.55
2018-11-29T07:15:42.205Z,75.64
2018-11-29T07:16:42.134Z,75.64
2018-11-29T07:17:42.074Z,75.84
2018-11-29T07:18:42.013Z,75.64
2018-11-29T07:19:41.955Z,75.84
2018-11-29T07:20:41.893Z,75.74
2018-11-29T07:21:41.835Z,75.74
2018-11-29T07:22:41.772Z,75.74
2018-11-29T07:23:41.712Z,76.03
2018-11-29T07:24:41.652Z,75.64
2018-11-29T07:25:41.593Z,75.74
2018-11-29T07:26:41.531Z,75.74
2018-11-29T07:27:41.470Z,75.84
2018-11-29T07:28:41.410Z,75.84
2018-11-29T07:29:41.349Z,75.74
2018-11-29T07:30:41.290Z,75.74
2018-11-29T07:31:41.229Z,75.74
2018-11-29T07:32:41.169Z,76.03
2018-11-29T07:33:41.112Z,75.84
2018-11-29T07:34:41.051Z,76.03
2018-11-29T07:35:40.988Z,75.74
2018-11-29T07:36:40.926Z,75.74
2018-11-29T07:37:40.866Z,75.93
2018-11-29T07:38:40.806Z,75.74
2018-11-29T07:39:40.746Z,76.03
2018-11-29T07:40:40.685Z,75.93
2018-11-29T07:41:40.626Z,76.03
2018-11-29T07:42:40.564Z,75.93
2018-11-29T07:43:40.504Z,75.74
2018-11-29T07:44:40.445Z,75.74
2018-11-29T07:45:40.385Z,75.84
2018-11-29T07:46:40.323Z,75.74
2018-11-29T07:47:40.263Z,75.93
2018-11-29T07:48:40.202Z,76.03
2018-11-29T07:49:40.144Z,75.64
2018-11-29T07:50:40.085Z,75.74
2018-11-29T07:51:40.021Z,75.74
2018-11-29T07:52:39.960Z,75.74
2018-11-29T07:53:39.900Z,75.84
2018-11-29T07:54:39.841Z,75.84
2018-11-29T07:55:39.780Z,75.84
2018-11-29T07:56:39.727Z,75.93
2018-11-29T07:57:39.660Z,75.64
2018-11-29T07:58:39.605Z,75.64
2018-11-29T07:59:39.538Z,75.55
2018-11-29T08:00:39.477Z,75.64
2018-11-29T08:01:39.426Z,75.55
2018-11-29T08:02:39.358Z,75.84
2018-11-29T08:03:39.296Z,75.74
2018-11-29T08:04:39.240Z,75.74
2018-11-29T08:05:39.175Z,75.64
2018-11-29T08:06:39.116Z,75.74
2018-11-29T08:07:39.055Z,75.84
2018-11-29T08:08:38.993Z,75.93
2018-11-29T08:09:38.933Z,75.84
2018-11-29T08:10:38.873Z,76.03
2018-11-29T08:11:38.813Z,75.64
2018-11-29T08:12:38.753Z,75.93
2018-11-29T08:13:38.696Z,76.03
2018-11-29T08:14:38.633Z,75.84
2018-11-29T08:15:39.019Z,75.84
2018-11-29T08:16:38.511Z,75.74
2018-11-29T08:17:38.449Z,75.84
2018-11-29T08:18:38.389Z,75.84
2018-11-29T08:19:38.331Z,76.03
2018-11-29T08:20:38.271Z,75.84
2018-11-29T08:21:38.211Z,75.84
2018-11-29T08:22:38.149Z,75.84
2018-11-29T08:23:38.089Z,75.84
2018-11-29T08:24:38.033Z,75.93
2018-11-29T08:25:37.973Z,76.03
2018-11-29T08:26:37.910Z,75.93
2018-11-29T08:27:37.852Z,75.93
2018-11-29T08:28:37.787Z,75.84
2018-11-29T08:29:37.727Z,75.84
2018-11-29T08:30:37.666Z,75.84
2018-11-29T08:31:37.612Z,76.03
2018-11-29T08:32:37.543Z,75.74
2018-11-29T08:33:37.485Z,76.12
2018-11-29T08:34:37.425Z,75.84
2018-11-29T08:35:37.364Z,76.03
2018-11-29T08:36:37.303Z,76.03
2018-11-29T08:37:37.242Z,76.03
2018-11-29T08:38:37.183Z,75.84
2018-11-29T08:39:37.121Z,75.45
2018-11-29T08:40:37.061Z,75.55
2018-11-29T08:41:37.005Z,75.26
2018-11-29T08:42:36.940Z,75.64
2018-11-29T08:43:36.880Z,75.64
2018-11-29T08:44:36.820Z,75.64
2018-11-29T08:45:36.761Z,75.17
2018-11-29T08:46:36.700Z,75.45
2018-11-29T08:47:36.640Z,75.49
2018-11-29T08:48:36.579Z,75.45
2018-11-29T08:49:36.518Z,75.45
2018-11-29T08:50:36.459Z,75.45
2018-11-29T08:51:36.398Z,75.36
2018-11-29T08:52:36.337Z,75.26
2018-11-29T08:53:36.278Z,75.26
2018-11-29T08:54:36.217Z,75.55
2018-11-29T08:55:36.156Z,75.45
2018-11-29T08:56:36.096Z,75.45
2018-11-29T08:57:36.037Z,74.98
2018-11-29T08:58:35.977Z,74.98
2018-11-29T08:59:35.915Z,74.88
2018-11-29T09:00:35.853Z,74.92
2018-11-29T09:01:35.795Z,74.92
2018-11-29T09:02:35.733Z,74.88
2018-11-29T09:03:35.673Z,75.17
2018-11-29T09:04:35.613Z,75.02
2018-11-29T09:05:35.553Z,74.79
2018-11-29T09:06:35.494Z,74.60
2018-11-29T09:07:35.432Z,74.98
2018-11-29T09:08:35.377Z,74.63
2018-11-29T09:09:35.313Z,74.82
2018-11-29T09:10:35.254Z,74.92
2018-11-29T09:11:35.192Z,74.92
2018-11-29T09:12:35.130Z,74.82
2018-11-29T09:13:35.070Z,74.88
2018-11-29T09:14:35.009Z,74.82
2018-11-29T09:15:34.949Z,74.63
2018-11-29T09:16:34.889Z,74.73
2018-11-29T09:17:34.828Z,74.63
2018-11-29T09:18:34.768Z,74.82
2018-11-29T09:19:37.519Z,74.63
2018-11-29T09:20:34.652Z,74.63
2018-11-29T09:21:34.588Z,75.02
2018-11-29T09:22:34.527Z,75.21
2018-11-29T09:23:34.467Z,75.21
2018-11-29T09:24:34.406Z,75.02
2018-11-29T09:25:34.347Z,74.63
2018-11-29T09:26:34.286Z,75.02
2018-11-29T09:27:34.228Z,74.73
2018-11-29T09:28:34.165Z,74.92
2018-11-29T09:29:34.104Z,74.92
2018-11-29T09:30:34.044Z,74.79
2018-11-29T09:31:33.986Z,74.82
2018-11-29T09:32:33.925Z,74.82
2018-11-29T09:33:33.868Z,74.92
2018-11-29T09:34:33.804Z,74.92
2018-11-29T09:35:33.745Z,74.82
2018-11-29T09:36:33.683Z,74.82
2018-11-29T09:37:33.622Z,74.73
2018-11-29T09:38:33.563Z,74.82
2018-11-29T09:39:33.502Z,75.02
2018-11-29T09:40:33.441Z,74.82
2018-11-29T09:41:33.381Z,74.82
2018-11-29T09:42:33.321Z,74.82
2018-11-29T09:43:33.262Z,74.54
2018-11-29T09:44:33.201Z,74.60
2018-11-29T09:45:33.142Z,75.21
2018-11-29T09:46:33.085Z,75.02
2018-11-29T09:47:33.020Z,75.02
2018-11-29T09:48:32.963Z,75.21
2018-11-29T09:49:32.902Z,75.21
2018-11-29T09:50:32.839Z,75.30
2018-11-29T09:51:32.780Z,75.21
2018-11-29T09:52:32.718Z,75.21
2018-11-29T09:53:33.114Z,74.73
2018-11-29T09:54:32.601Z,74.54
2018-11-29T09:55:32.554Z,74.63
2018-11-29T09:56:32.478Z,74.82
2018-11-29T09:57:32.417Z,74.35
2018-11-29T09:58:32.357Z,74.26
2018-11-29T09:59:32.296Z,74.44
2018-11-29T10:00:32.236Z,74.07
2018-11-29T10:01:32.176Z,74.12
2018-11-29T10:02:32.115Z,74.35
2018-11-29T10:03:32.058Z,74.35
2018-11-29T10:04:31.998Z,74.44
2018-11-29T10:05:31.935Z,73.97
2018-11-29T10:06:31.875Z,73.97
2018-11-29T10:07:31.814Z,73.97
2018-11-29T10:08:31.757Z,73.84
2018-11-29T10:09:31.695Z,73.78
2018-11-29T10:10:31.633Z,73.78
2018-11-29T10:11:31.574Z,73.78
2018-11-29T10:12:31.519Z,73.88
2018-11-29T10:13:31.464Z,73.78
2018-11-29T10:14:31.393Z,73.78
2018-11-29T10:15:31.333Z,74.35
2018-11-29T10:16:31.272Z,73.88
2018-11-29T10:17:31.215Z,73.88
2018-11-29T10:18:31.152Z,74.26
2018-11-29T10:19:31.092Z,74.35
2018-11-29T10:20:31.032Z,74.16
2018-11-29T10:21:30.971Z,74.44
2018-11-29T10:22:30.911Z,74.35
2018-11-29T10:23:30.850Z,73.97
2018-11-29T10:24:30.789Z,74.07
2018-11-29T10:25:30.729Z,73.97
2018-11-29T10:26:30.670Z,73.88
2018-11-29T10:27:30.612Z,74.44
2018-11-29T10:28:30.548Z,74.44
2018-11-29T10:29:30.489Z,73.97
2018-11-29T10:30:30.430Z,73.88
2018-11-29T10:31:30.368Z,73.88
2018-11-29T10:32:30.308Z,73.78
2018-11-29T10:33:30.246Z,74.07
2018-11-29T10:34:30.187Z,73.78
2018-11-29T10:35:30.132Z,73.69
2018-11-29T10:36:30.067Z,74.07
2018-11-29T10:37:30.009Z,74.54
2018-11-29T10:38:29.952Z,74.16
2018-11-29T10:39:29.886Z,74.07
2018-11-29T10:40:29.825Z,74.44
2018-11-29T10:41:30.336Z,74.63
2018-11-29T10:42:29.706Z,74.26
2018-11-29T10:43:29.645Z,74.44
2018-11-29T10:44:29.586Z,74.26
2018-11-29T10:45:29.585Z,74.16
2018-11-29T10:46:29.466Z,74.26
2018-11-29T10:47:29.408Z,74.26
2018-11-29T10:48:29.343Z,74.26
2018-11-29T10:49:29.283Z,74.26
2018-11-29T10:50:29.223Z,74.35
2018-11-29T10:51:29.163Z,74.16
2018-11-29T10:52:29.103Z,73.97
2018-11-29T10:53:29.043Z,74.44
2018-11-29T10:54:28.983Z,74.54
2018-11-29T10:55:28.924Z,74.44
2018-11-29T10:56:28.864Z,74.63
2018-11-29T10:57:28.804Z,74.16
2018-11-29T10:58:28.743Z,74.35
2018-11-29T10:59:28.683Z,73.97
2018-11-29T11:00:28.623Z,74.26
2018-11-29T11:01:28.562Z,74.35
2018-11-29T11:02:28.502Z,74.44
2018-11-29T11:03:28.442Z,74.26
2018-11-29T11:04:28.386Z,74.07
2018-11-29T11:05:28.324Z,74.07
2018-11-29T11:06:28.262Z,74.44
2018-11-29T11:07:28.201Z,74.26
2018-11-29T11:08:28.142Z,74.44
2018-11-29T11:09:28.081Z,74.35
2018-11-29T11:10:28.021Z,74.16
2018-11-29T11:11:27.960Z,73.97
2018-11-29T11:12:27.898Z,74.16
2018-11-29T11:13:27.840Z,74.26
2018-11-29T11:14:27.784Z,74.35
2018-11-29T11:15:27.719Z,74.35
2018-11-29T11:16:27.659Z,74.35
2018-11-29T11:17:27.601Z,74.35
2018-11-29T11:18:27.542Z,74.54
2018-11-29T11:19:27.478Z,74.35
2018-11-29T11:20:27.418Z,74.35
2018-11-29T11:21:27.373Z,74.35
2018-11-29T11:22:27.298Z,74.54
2018-11-29T11:23:27.239Z,74.54
2018-11-29T11:24:27.178Z,74.73
2018-11-29T11:25:27.122Z,74.63
2018-11-29T11:26:27.058Z,74.73
2018-11-29T11:27:26.997Z,74.82
2018-11-29T11:28:26.936Z,74.63
2018-11-29T11:29:26.876Z,74.54
2018-11-29T11:30:26.819Z,74.63
2018-11-29T11:31:31.004Z,74.73
2018-11-29T11:32:26.697Z,74.63
2018-11-29T11:33:26.636Z,74.63
2018-11-29T11:34:26.576Z,74.63
2018-11-29T11:35:26.516Z,74.63
2018-11-29T11:36:26.458Z,74.63
2018-11-29T11:37:26.400Z,74.73
2018-11-29T11:38:26.335Z,74.73
2018-11-29T11:39:26.275Z,74.63
2018-11-29T11:40:26.215Z,74.54
2018-11-29T11:41:26.155Z,74.54
2018-11-29T11:42:26.095Z,74.73
2018-11-29T11:43:26.035Z,74.63
2018-11-29T11:44:25.975Z,74.73
2018-11-29T11:45:25.915Z,74.35
2018-11-29T11:46:25.860Z,74.63
2018-11-29T11:47:25.795Z,74.54
2018-11-29T11:48:25.736Z,74.54
2018-11-29T11:49:25.675Z,74.63
2018-11-29T11:50:25.615Z,74.54
2018-11-29T11:51:25.554Z,74.63
2018-11-29T11:52:25.493Z,74.63
2018-11-29T11:53:25.434Z,74.73
2018-11-29T11:54:25.374Z,74.54
2018-11-29T11:55:29.993Z,74.63
2018-11-29T11:56:25.254Z,74.63
2018-11-29T11:57:25.198Z,74.63
2018-11-29T11:58:25.134Z,75.02
2018-11-29T11:59:25.078Z,74.73
2018-11-29T12:00:25.013Z,74.63
2018-11-29T12:01:24.953Z,74.54
2018-11-29T12:02:27.644Z,74.82
2018-11-29T12:03:24.834Z,74.63
2018-11-29T12:04:24.773Z,74.82
2018-11-29T12:05:24.713Z,74.54
2018-11-29T12:06:24.651Z,74.54
2018-11-29T12:07:24.596Z,74.54
2018-11-29T12:08:24.532Z,74.63
2018-11-29T12:09:24.474Z,74.35
2018-11-29T12:10:24.411Z,74.82
2018-11-29T12:11:24.361Z,74.82
2018-11-29T12:12:24.291Z,74.82
2018-11-29T12:13:24.233Z,74.63
2018-11-29T12:14:24.174Z,74.73
2018-11-29T12:15:24.115Z,74.73
2018-11-29T12:16:24.051Z,74.82
2018-11-29T12:17:23.991Z,74.82
2018-11-29T12:18:23.932Z,74.82
2018-11-29T12:19:23.871Z,75.21
2018-11-29T12:20:23.811Z,75.40
2018-11-29T12:21:23.751Z,75.30
2018-11-29T12:22:23.692Z,75.21
2018-11-29T12:23:23.631Z,75.40
2018-11-29T12:24:23.572Z,75.30
2018-11-29T12:25:23.512Z,75.30
2018-11-29T12:26:23.453Z,74.92
2018-11-29T12:27:23.392Z,74.92
2018-11-29T12:28:23.335Z,74.92
2018-11-29T12:29:23.271Z,74.92
2018-11-29T12:30:23.212Z,75.21
2018-11-29T12:31:23.152Z,75.21
2018-11-29T12:32:23.090Z,74.92
2018-11-29T12:33:23.110Z,75.02
2018-11-29T12:34:22.970Z,75.02
2018-11-29T12:35:22.913Z,74.92
2018-11-29T12:36:22.849Z,74.82
2018-11-29T12:37:22.790Z,75.11
2018-11-29T12:38:22.730Z,75.02
2018-11-29T12:39:22.671Z,75.02
2018-11-29T12:40:22.611Z,74.92
2018-11-29T12:41:22.557Z,75.21
2018-11-29T12:42:22.490Z,75.02
2018-11-29T12:43:22.431Z,75.21
2018-11-29T12:44:22.369Z,75.21
2018-11-29T12:45:22.313Z,75.30
2018-11-29T12:46:22.253Z,75.30
2018-11-29T12:47:22.190Z,74.82
2018-11-29T12:48:22.131Z,75.21
2018-11-29T12:49:22.071Z,75.21
2018-11-29T12:50:22.010Z,74.82
2018-11-29T12:51:21.951Z,75.21